sensor_id;sensor_type;location;lat;lon;timestamp;P1;durP1;ratioP1;P2;durP2;ratioP2
54271;SDS011;40184;53.362;5.216;2023-02-28T00:00:30;7.60;;;1.88;;
54271;SDS011;40184;53.362;5.216;2023-02-28T00:02:56;8.23;;;1.52;;
54271;SDS011;40184;53.362;5.216;2023-02-28T00:05:23;5.90;;;1.13;;
54271;SDS011;40184;53.362;5.216;2023-02-28T00:07:50;8.32;;;1.67;;
54271;SDS011;40184;53.362;5.216;2023-02-28T00:10:23;2.00;;;0.80;;
54271;SDS011;40184;53.362;5.216;2023-02-28T00:12:52;6.85;;;1.98;;
54271;SDS011;40184;53.362;5.216;2023-02-28T00:15:22;7.80;;;1.88;;
54271;SDS011;40184;53.362;5.216;2023-02-28T00:17:48;5.95;;;1.08;;
54271;SDS011;40184;53.362;5.216;2023-02-28T00:20:14;7.38;;;1.08;;
54271;SDS011;40184;53.362;5.216;2023-02-28T00:22:44;8.18;;;0.90;;
54271;SDS011;40184;53.362;5.216;2023-02-28T00:25:14;3.75;;;0.95;;
54271;SDS011;40184;53.362;5.216;2023-02-28T00:27:42;1.20;;;0.60;;
54271;SDS011;40184;53.362;5.216;2023-02-28T00:30:10;4.25;;;1.20;;
54271;SDS011;40184;53.362;5.216;2023-02-28T00:32:37;5.38;;;1.00;;
54271;SDS011;40184;53.362;5.216;2023-02-28T00:35:03;7.82;;;1.33;;
54271;SDS011;40184;53.362;5.216;2023-02-28T00:37:29;7.10;;;1.08;;
54271;SDS011;40184;53.362;5.216;2023-02-28T00:39:56;5.60;;;1.27;;
54271;SDS011;40184;53.362;5.216;2023-02-28T00:42:21;6.82;;;1.10;;
54271;SDS011;40184;53.362;5.216;2023-02-28T00:44:47;17.23;;;2.95;;
54271;SDS011;40184;53.362;5.216;2023-02-28T00:47:13;7.55;;;1.40;;
54271;SDS011;40184;53.362;5.216;2023-02-28T00:49:39;6.30;;;0.90;;
54271;SDS011;40184;53.362;5.216;2023-02-28T00:52:05;6.18;;;1.08;;
54271;SDS011;40184;53.362;5.216;2023-02-28T00:54:30;7.43;;;1.60;;
54271;SDS011;40184;53.362;5.216;2023-02-28T00:56:56;2.83;;;0.77;;
54271;SDS011;40184;53.362;5.216;2023-02-28T00:59:22;7.53;;;0.80;;
54271;SDS011;40184;53.362;5.216;2023-02-28T01:01:48;4.75;;;1.20;;
54271;SDS011;40184;53.362;5.216;2023-02-28T01:04:13;8.25;;;0.98;;
54271;SDS011;40184;53.362;5.216;2023-02-28T01:06:39;7.82;;;1.70;;
54271;SDS011;40184;53.362;5.216;2023-02-28T01:09:06;8.55;;;1.65;;
54271;SDS011;40184;53.362;5.216;2023-02-28T01:11:33;3.90;;;0.98;;
54271;SDS011;40184;53.362;5.216;2023-02-28T01:13:59;9.05;;;1.10;;
54271;SDS011;40184;53.362;5.216;2023-02-28T01:16:25;3.53;;;0.95;;
54271;SDS011;40184;53.362;5.216;2023-02-28T01:18:52;5.50;;;0.63;;
54271;SDS011;40184;53.362;5.216;2023-02-28T01:21:18;4.43;;;0.88;;
54271;SDS011;40184;53.362;5.216;2023-02-28T01:23:45;4.63;;;0.70;;
54271;SDS011;40184;53.362;5.216;2023-02-28T01:26:14;2.95;;;1.33;;
54271;SDS011;40184;53.362;5.216;2023-02-28T01:28:48;2.95;;;0.98;;
54271;SDS011;40184;53.362;5.216;2023-02-28T01:31:16;6.13;;;0.82;;
54271;SDS011;40184;53.362;5.216;2023-02-28T01:33:43;4.75;;;1.48;;
54271;SDS011;40184;53.362;5.216;2023-02-28T01:36:13;7.82;;;1.10;;
54271;SDS011;40184;53.362;5.216;2023-02-28T01:38:43;10.68;;;1.45;;
54271;SDS011;40184;53.362;5.216;2023-02-28T01:41:12;7.22;;;1.42;;
54271;SDS011;40184;53.362;5.216;2023-02-28T01:46:10;10.02;;;1.38;;
54271;SDS011;40184;53.362;5.216;2023-02-28T01:48:38;7.28;;;1.10;;
54271;SDS011;40184;53.362;5.216;2023-02-28T01:51:13;3.83;;;1.77;;
54271;SDS011;40184;53.362;5.216;2023-02-28T01:53:44;10.95;;;1.35;;
54271;SDS011;40184;53.362;5.216;2023-02-28T01:56:15;8.18;;;1.35;;
54271;SDS011;40184;53.362;5.216;2023-02-28T01:58:48;5.45;;;1.13;;
54271;SDS011;40184;53.362;5.216;2023-02-28T02:01:16;3.65;;;0.90;;
54271;SDS011;40184;53.362;5.216;2023-02-28T02:03:56;6.65;;;1.13;;
54271;SDS011;40184;53.362;5.216;2023-02-28T02:06:32;4.10;;;0.68;;
54271;SDS011;40184;53.362;5.216;2023-02-28T02:09:02;5.55;;;0.73;;
54271;SDS011;40184;53.362;5.216;2023-02-28T02:11:28;4.78;;;1.02;;
54271;SDS011;40184;53.362;5.216;2023-02-28T02:25:28;7.20;;;1.20;;
54271;SDS011;40184;53.362;5.216;2023-02-28T02:30:45;5.15;;;0.98;;
54271;SDS011;40184;53.362;5.216;2023-02-28T02:33:40;6.20;;;1.10;;
54271;SDS011;40184;53.362;5.216;2023-02-28T02:36:30;3.42;;;1.55;;
54271;SDS011;40184;53.362;5.216;2023-02-28T02:39:06;5.53;;;1.10;;
54271;SDS011;40184;53.362;5.216;2023-02-28T02:41:35;5.57;;;0.93;;
54271;SDS011;40184;53.362;5.216;2023-02-28T02:44:07;5.83;;;1.17;;
54271;SDS011;40184;53.362;5.216;2023-02-28T02:47:04;4.55;;;0.90;;
54271;SDS011;40184;53.362;5.216;2023-02-28T02:49:35;4.07;;;1.52;;
54271;SDS011;40184;53.362;5.216;2023-02-28T02:52:04;6.05;;;1.00;;
54271;SDS011;40184;53.362;5.216;2023-02-28T02:54:37;7.63;;;0.88;;
54271;SDS011;40184;53.362;5.216;2023-02-28T02:57:05;5.70;;;0.73;;
54271;SDS011;40184;53.362;5.216;2023-02-28T02:59:35;3.13;;;0.80;;
54271;SDS011;40184;53.362;5.216;2023-02-28T03:02:04;15.45;;;2.17;;
54271;SDS011;40184;53.362;5.216;2023-02-28T03:04:34;11.52;;;2.42;;
54271;SDS011;40184;53.362;5.216;2023-02-28T03:07:05;6.57;;;1.23;;
54271;SDS011;40184;53.362;5.216;2023-02-28T03:09:32;3.72;;;0.75;;
54271;SDS011;40184;53.362;5.216;2023-02-28T03:11:59;3.60;;;0.70;;
54271;SDS011;40184;53.362;5.216;2023-02-28T03:17:11;5.63;;;0.80;;
54271;SDS011;40184;53.362;5.216;2023-02-28T03:25:38;7.65;;;1.48;;
54271;SDS011;40184;53.362;5.216;2023-02-28T03:30:50;7.13;;;1.00;;
54271;SDS011;40184;53.362;5.216;2023-02-28T03:33:27;9.13;;;1.13;;
54271;SDS011;40184;53.362;5.216;2023-02-28T03:35:54;8.48;;;1.70;;
54271;SDS011;40184;53.362;5.216;2023-02-28T03:38:27;7.05;;;1.55;;
54271;SDS011;40184;53.362;5.216;2023-02-28T03:41:04;7.68;;;1.33;;
54271;SDS011;40184;53.362;5.216;2023-02-28T03:43:34;7.53;;;1.42;;
54271;SDS011;40184;53.362;5.216;2023-02-28T03:46:04;8.38;;;1.05;;
54271;SDS011;40184;53.362;5.216;2023-02-28T03:48:39;8.35;;;1.20;;
54271;SDS011;40184;53.362;5.216;2023-02-28T03:51:10;10.20;;;1.17;;
54271;SDS011;40184;53.362;5.216;2023-02-28T03:53:43;8.32;;;1.13;;
54271;SDS011;40184;53.362;5.216;2023-02-28T03:58:47;7.40;;;1.65;;
54271;SDS011;40184;53.362;5.216;2023-02-28T04:01:39;6.50;;;0.90;;
54271;SDS011;40184;53.362;5.216;2023-02-28T04:04:10;5.32;;;0.98;;
54271;SDS011;40184;53.362;5.216;2023-02-28T04:06:37;8.02;;;1.42;;
54271;SDS011;40184;53.362;5.216;2023-02-28T04:09:05;8.00;;;1.27;;
54271;SDS011;40184;53.362;5.216;2023-02-28T04:11:36;5.72;;;1.20;;
54271;SDS011;40184;53.362;5.216;2023-02-28T04:14:04;5.75;;;0.93;;
54271;SDS011;40184;53.362;5.216;2023-02-28T04:16:32;8.18;;;1.33;;
54271;SDS011;40184;53.362;5.216;2023-02-28T04:18:59;11.85;;;1.52;;
54271;SDS011;40184;53.362;5.216;2023-02-28T04:21:31;9.77;;;2.08;;
54271;SDS011;40184;53.362;5.216;2023-02-28T04:23:59;4.72;;;1.00;;
54271;SDS011;40184;53.362;5.216;2023-02-28T04:26:29;9.10;;;1.10;;
54271;SDS011;40184;53.362;5.216;2023-02-28T04:28:59;8.13;;;1.73;;
54271;SDS011;40184;53.362;5.216;2023-02-28T04:31:25;13.98;;;2.90;;
54271;SDS011;40184;53.362;5.216;2023-02-28T04:33:51;6.50;;;1.60;;
54271;SDS011;40184;53.362;5.216;2023-02-28T04:36:17;7.82;;;1.40;;
54271;SDS011;40184;53.362;5.216;2023-02-28T04:38:43;6.30;;;1.38;;
54271;SDS011;40184;53.362;5.216;2023-02-28T04:41:10;4.95;;;1.35;;
54271;SDS011;40184;53.362;5.216;2023-02-28T04:43:36;7.65;;;1.30;;
54271;SDS011;40184;53.362;5.216;2023-02-28T04:46:03;4.80;;;1.13;;
54271;SDS011;40184;53.362;5.216;2023-02-28T04:48:30;6.97;;;1.42;;
54271;SDS011;40184;53.362;5.216;2023-02-28T04:51:04;9.38;;;1.20;;
54271;SDS011;40184;53.362;5.216;2023-02-28T04:53:31;7.80;;;1.70;;
54271;SDS011;40184;53.362;5.216;2023-02-28T04:55:57;5.72;;;1.50;;
54271;SDS011;40184;53.362;5.216;2023-02-28T04:58:23;8.68;;;2.28;;
54271;SDS011;40184;53.362;5.216;2023-02-28T05:00:50;7.93;;;1.38;;
54271;SDS011;40184;53.362;5.216;2023-02-28T05:03:16;10.27;;;1.80;;
54271;SDS011;40184;53.362;5.216;2023-02-28T05:05:42;5.85;;;1.23;;
54271;SDS011;40184;53.362;5.216;2023-02-28T05:08:08;8.68;;;2.15;;
54271;SDS011;40184;53.362;5.216;2023-02-28T05:10:35;13.73;;;2.17;;
54271;SDS011;40184;53.362;5.216;2023-02-28T05:13:01;10.30;;;1.98;;
54271;SDS011;40184;53.362;5.216;2023-02-28T05:15:26;9.77;;;1.75;;
54271;SDS011;40184;53.362;5.216;2023-02-28T05:17:52;6.93;;;1.52;;
54271;SDS011;40184;53.362;5.216;2023-02-28T05:20:18;6.40;;;1.17;;
54271;SDS011;40184;53.362;5.216;2023-02-28T05:22:43;7.30;;;1.35;;
54271;SDS011;40184;53.362;5.216;2023-02-28T05:25:27;13.10;;;1.60;;
54271;SDS011;40184;53.362;5.216;2023-02-28T05:27:53;12.18;;;1.98;;
54271;SDS011;40184;53.362;5.216;2023-02-28T05:30:19;6.18;;;1.23;;
54271;SDS011;40184;53.362;5.216;2023-02-28T05:32:48;10.43;;;1.90;;
54271;SDS011;40184;53.362;5.216;2023-02-28T05:35:16;5.78;;;1.25;;
54271;SDS011;40184;53.362;5.216;2023-02-28T05:37:41;10.50;;;2.42;;
54271;SDS011;40184;53.362;5.216;2023-02-28T05:40:07;6.53;;;1.98;;
54271;SDS011;40184;53.362;5.216;2023-02-28T05:42:36;12.85;;;2.05;;
54271;SDS011;40184;53.362;5.216;2023-02-28T05:45:03;9.40;;;1.92;;
54271;SDS011;40184;53.362;5.216;2023-02-28T05:47:29;8.30;;;2.05;;
54271;SDS011;40184;53.362;5.216;2023-02-28T05:49:55;9.13;;;1.58;;
54271;SDS011;40184;53.362;5.216;2023-02-28T05:52:21;12.30;;;2.03;;
54271;SDS011;40184;53.362;5.216;2023-02-28T05:54:47;11.70;;;1.52;;
54271;SDS011;40184;53.362;5.216;2023-02-28T05:57:13;11.10;;;1.70;;
54271;SDS011;40184;53.362;5.216;2023-02-28T05:59:38;8.95;;;1.70;;
54271;SDS011;40184;53.362;5.216;2023-02-28T06:02:15;8.43;;;1.95;;
54271;SDS011;40184;53.362;5.216;2023-02-28T06:04:41;10.52;;;1.75;;
54271;SDS011;40184;53.362;5.216;2023-02-28T06:07:08;10.45;;;1.73;;
54271;SDS011;40184;53.362;5.216;2023-02-28T06:09:34;8.10;;;1.15;;
54271;SDS011;40184;53.362;5.216;2023-02-28T06:12:01;11.63;;;1.77;;
54271;SDS011;40184;53.362;5.216;2023-02-28T06:14:30;13.55;;;1.50;;
54271;SDS011;40184;53.362;5.216;2023-02-28T06:16:57;5.82;;;2.35;;
54271;SDS011;40184;53.362;5.216;2023-02-28T06:19:24;8.88;;;1.70;;
54271;SDS011;40184;53.362;5.216;2023-02-28T06:21:54;9.63;;;2.10;;
54271;SDS011;40184;53.362;5.216;2023-02-28T06:24:20;13.38;;;1.67;;
54271;SDS011;40184;53.362;5.216;2023-02-28T06:26:47;12.90;;;2.00;;
54271;SDS011;40184;53.362;5.216;2023-02-28T06:29:13;15.82;;;1.75;;
54271;SDS011;40184;53.362;5.216;2023-02-28T06:31:46;8.65;;;1.95;;
54271;SDS011;40184;53.362;5.216;2023-02-28T06:34:12;8.48;;;1.45;;
54271;SDS011;40184;53.362;5.216;2023-02-28T06:36:39;7.05;;;1.67;;
54271;SDS011;40184;53.362;5.216;2023-02-28T06:39:05;7.32;;;1.30;;
54271;SDS011;40184;53.362;5.216;2023-02-28T06:41:32;11.77;;;1.77;;
54271;SDS011;40184;53.362;5.216;2023-02-28T06:44:02;7.63;;;2.08;;
54271;SDS011;40184;53.362;5.216;2023-02-28T06:46:31;13.20;;;2.97;;
54271;SDS011;40184;53.362;5.216;2023-02-28T06:48:56;12.77;;;2.50;;
54271;SDS011;40184;53.362;5.216;2023-02-28T06:51:22;9.85;;;1.95;;
54271;SDS011;40184;53.362;5.216;2023-02-28T06:53:49;10.65;;;1.92;;
54271;SDS011;40184;53.362;5.216;2023-02-28T06:56:15;11.80;;;2.78;;
54271;SDS011;40184;53.362;5.216;2023-02-28T06:58:45;9.13;;;2.13;;
54271;SDS011;40184;53.362;5.216;2023-02-28T07:01:15;8.73;;;1.98;;
54271;SDS011;40184;53.362;5.216;2023-02-28T07:03:41;15.98;;;2.72;;
54271;SDS011;40184;53.362;5.216;2023-02-28T07:06:06;19.40;;;3.85;;
54271;SDS011;40184;53.362;5.216;2023-02-28T07:08:33;10.25;;;1.88;;
54271;SDS011;40184;53.362;5.216;2023-02-28T07:10:59;9.07;;;2.53;;
54271;SDS011;40184;53.362;5.216;2023-02-28T07:13:25;10.35;;;2.33;;
54271;SDS011;40184;53.362;5.216;2023-02-28T07:15:58;18.63;;;3.47;;
54271;SDS011;40184;53.362;5.216;2023-02-28T07:18:29;14.10;;;2.45;;
54271;SDS011;40184;53.362;5.216;2023-02-28T07:20:55;19.23;;;2.47;;
54271;SDS011;40184;53.362;5.216;2023-02-28T07:23:21;8.20;;;2.20;;
54271;SDS011;40184;53.362;5.216;2023-02-28T07:25:47;8.68;;;2.08;;
54271;SDS011;40184;53.362;5.216;2023-02-28T07:28:14;11.98;;;2.80;;
54271;SDS011;40184;53.362;5.216;2023-02-28T07:30:40;10.32;;;2.63;;
54271;SDS011;40184;53.362;5.216;2023-02-28T07:33:06;18.08;;;2.53;;
54271;SDS011;40184;53.362;5.216;2023-02-28T07:35:32;10.07;;;2.25;;
54271;SDS011;40184;53.362;5.216;2023-02-28T07:37:58;14.75;;;2.78;;
54271;SDS011;40184;53.362;5.216;2023-02-28T07:40:24;19.33;;;2.97;;
54271;SDS011;40184;53.362;5.216;2023-02-28T07:42:50;10.50;;;2.25;;
54271;SDS011;40184;53.362;5.216;2023-02-28T07:45:16;17.35;;;1.90;;
54271;SDS011;40184;53.362;5.216;2023-02-28T07:47:42;8.40;;;1.98;;
54271;SDS011;40184;53.362;5.216;2023-02-28T07:50:09;10.68;;;2.75;;
54271;SDS011;40184;53.362;5.216;2023-02-28T07:52:37;15.55;;;2.45;;
54271;SDS011;40184;53.362;5.216;2023-02-28T07:55:04;12.43;;;2.08;;
54271;SDS011;40184;53.362;5.216;2023-02-28T07:57:31;13.38;;;2.45;;
54271;SDS011;40184;53.362;5.216;2023-02-28T07:59:57;13.98;;;2.00;;
54271;SDS011;40184;53.362;5.216;2023-02-28T08:02:23;27.23;;;4.03;;
54271;SDS011;40184;53.362;5.216;2023-02-28T08:04:49;12.27;;;2.92;;
54271;SDS011;40184;53.362;5.216;2023-02-28T08:07:15;13.20;;;2.25;;
54271;SDS011;40184;53.362;5.216;2023-02-28T08:09:42;21.27;;;3.50;;
54271;SDS011;40184;53.362;5.216;2023-02-28T08:12:09;18.20;;;3.78;;
54271;SDS011;40184;53.362;5.216;2023-02-28T08:14:36;17.60;;;3.13;;
54271;SDS011;40184;53.362;5.216;2023-02-28T08:17:02;14.27;;;2.78;;
54271;SDS011;40184;53.362;5.216;2023-02-28T08:19:28;15.20;;;2.83;;
54271;SDS011;40184;53.362;5.216;2023-02-28T08:21:54;13.38;;;2.17;;
54271;SDS011;40184;53.362;5.216;2023-02-28T08:24:20;13.90;;;2.63;;
54271;SDS011;40184;53.362;5.216;2023-02-28T08:26:46;7.90;;;2.03;;
54271;SDS011;40184;53.362;5.216;2023-02-28T08:29:12;14.32;;;2.35;;
54271;SDS011;40184;53.362;5.216;2023-02-28T08:31:38;10.90;;;2.03;;
54271;SDS011;40184;53.362;5.216;2023-02-28T08:34:10;11.80;;;2.55;;
54271;SDS011;40184;53.362;5.216;2023-02-28T08:36:38;11.02;;;3.13;;
54271;SDS011;40184;53.362;5.216;2023-02-28T08:39:05;18.63;;;2.30;;
54271;SDS011;40184;53.362;5.216;2023-02-28T08:41:31;10.68;;;2.95;;
54271;SDS011;40184;53.362;5.216;2023-02-28T08:43:57;18.55;;;2.85;;
54271;SDS011;40184;53.362;5.216;2023-02-28T08:46:23;13.38;;;2.83;;
54271;SDS011;40184;53.362;5.216;2023-02-28T08:48:52;12.13;;;2.80;;
54271;SDS011;40184;53.362;5.216;2023-02-28T08:51:20;21.77;;;4.78;;
54271;SDS011;40184;53.362;5.216;2023-02-28T08:53:51;20.70;;;4.15;;
54271;SDS011;40184;53.362;5.216;2023-02-28T08:56:18;14.23;;;3.20;;
54271;SDS011;40184;53.362;5.216;2023-02-28T08:58:45;12.43;;;4.53;;
54271;SDS011;40184;53.362;5.216;2023-02-28T09:01:13;10.93;;;3.83;;
54271;SDS011;40184;53.362;5.216;2023-02-28T09:03:41;7.32;;;3.90;;
54271;SDS011;40184;53.362;5.216;2023-02-28T09:06:07;17.63;;;4.70;;
54271;SDS011;40184;53.362;5.216;2023-02-28T09:08:34;9.55;;;5.60;;
54271;SDS011;40184;53.362;5.216;2023-02-28T09:11:00;8.23;;;5.47;;
54271;SDS011;40184;53.362;5.216;2023-02-28T09:13:28;9.57;;;5.10;;
54271;SDS011;40184;53.362;5.216;2023-02-28T09:15:56;8.35;;;5.03;;
54271;SDS011;40184;53.362;5.216;2023-02-28T09:18:23;8.10;;;5.00;;
54271;SDS011;40184;53.362;5.216;2023-02-28T09:20:48;10.82;;;5.10;;
54271;SDS011;40184;53.362;5.216;2023-02-28T09:23:15;12.38;;;5.70;;
54271;SDS011;40184;53.362;5.216;2023-02-28T09:25:45;8.25;;;4.97;;
54271;SDS011;40184;53.362;5.216;2023-02-28T09:28:15;9.40;;;5.40;;
54271;SDS011;40184;53.362;5.216;2023-02-28T09:30:42;8.25;;;4.82;;
54271;SDS011;40184;53.362;5.216;2023-02-28T09:33:09;14.35;;;5.13;;
54271;SDS011;40184;53.362;5.216;2023-02-28T09:35:35;10.27;;;5.28;;
54271;SDS011;40184;53.362;5.216;2023-02-28T09:38:02;9.45;;;5.10;;
54271;SDS011;40184;53.362;5.216;2023-02-28T09:40:29;8.85;;;5.82;;
54271;SDS011;40184;53.362;5.216;2023-02-28T09:42:56;9.85;;;5.32;;
54271;SDS011;40184;53.362;5.216;2023-02-28T09:45:28;14.80;;;6.75;;
54271;SDS011;40184;53.362;5.216;2023-02-28T09:47:59;9.43;;;5.10;;
54271;SDS011;40184;53.362;5.216;2023-02-28T09:50:31;8.07;;;5.60;;
54271;SDS011;40184;53.362;5.216;2023-02-28T09:53:06;10.55;;;6.57;;
54271;SDS011;40184;53.362;5.216;2023-02-28T09:55:51;7.93;;;5.70;;
54271;SDS011;40184;53.362;5.216;2023-02-28T09:58:23;13.32;;;6.20;;
54271;SDS011;40184;53.362;5.216;2023-02-28T10:03:44;11.60;;;6.43;;
54271;SDS011;40184;53.362;5.216;2023-02-28T10:06:19;10.40;;;6.32;;
54271;SDS011;40184;53.362;5.216;2023-02-28T10:11:34;8.60;;;6.30;;
54271;SDS011;40184;53.362;5.216;2023-02-28T10:14:04;15.90;;;7.57;;
54271;SDS011;40184;53.362;5.216;2023-02-28T10:21:45;9.95;;;7.03;;
54271;SDS011;40184;53.362;5.216;2023-02-28T10:26:55;11.02;;;7.82;;
54271;SDS011;40184;53.362;5.216;2023-02-28T10:29:26;10.20;;;8.10;;
54271;SDS011;40184;53.362;5.216;2023-02-28T10:32:01;7.97;;;7.18;;
54271;SDS011;40184;53.362;5.216;2023-02-28T10:36:54;8.27;;;7.50;;
54271;SDS011;40184;53.362;5.216;2023-02-28T10:42:30;9.52;;;6.85;;
54271;SDS011;40184;53.362;5.216;2023-02-28T10:45:12;10.85;;;6.53;;
54271;SDS011;40184;53.362;5.216;2023-02-28T10:48:03;6.50;;;5.10;;
54271;SDS011;40184;53.362;5.216;2023-02-28T10:50:35;7.68;;;5.68;;
54271;SDS011;40184;53.362;5.216;2023-02-28T10:55:35;9.63;;;6.25;;
54271;SDS011;40184;53.362;5.216;2023-02-28T10:58:02;9.45;;;5.72;;
54271;SDS011;40184;53.362;5.216;2023-02-28T11:00:36;8.60;;;6.00;;
54271;SDS011;40184;53.362;5.216;2023-02-28T11:03:02;7.30;;;5.50;;
54271;SDS011;40184;53.362;5.216;2023-02-28T11:05:58;6.97;;;5.82;;
54271;SDS011;40184;53.362;5.216;2023-02-28T11:08:29;7.32;;;5.72;;
54271;SDS011;40184;53.362;5.216;2023-02-28T11:10:56;9.63;;;6.05;;
54271;SDS011;40184;53.362;5.216;2023-02-28T11:13:28;7.68;;;6.47;;
54271;SDS011;40184;53.362;5.216;2023-02-28T11:15:59;7.57;;;5.40;;
54271;SDS011;40184;53.362;5.216;2023-02-28T11:18:29;8.48;;;5.25;;
54271;SDS011;40184;53.362;5.216;2023-02-28T11:20:59;7.38;;;6.20;;
54271;SDS011;40184;53.362;5.216;2023-02-28T11:23:27;6.43;;;5.50;;
54271;SDS011;40184;53.362;5.216;2023-02-28T11:25:56;7.70;;;6.47;;
54271;SDS011;40184;53.362;5.216;2023-02-28T11:28:29;5.90;;;4.18;;
54271;SDS011;40184;53.362;5.216;2023-02-28T11:33:48;4.82;;;3.75;;
54271;SDS011;40184;53.362;5.216;2023-02-28T11:38:55;5.88;;;3.55;;
54271;SDS011;40184;53.362;5.216;2023-02-28T11:52:52;2.08;;;1.83;;
54271;SDS011;40184;53.362;5.216;2023-02-28T11:55:26;2.78;;;2.58;;
54271;SDS011;40184;53.362;5.216;2023-02-28T12:03:17;5.20;;;2.88;;
54271;SDS011;40184;53.362;5.216;2023-02-28T12:05:56;3.97;;;3.58;;
54271;SDS011;40184;53.362;5.216;2023-02-28T12:08:44;5.85;;;3.10;;
54271;SDS011;40184;53.362;5.216;2023-02-28T12:11:22;2.72;;;2.55;;
54271;SDS011;40184;53.362;5.216;2023-02-28T12:17:03;3.67;;;2.30;;
54271;SDS011;40184;53.362;5.216;2023-02-28T12:25:19;3.05;;;2.50;;
54271;SDS011;40184;53.362;5.216;2023-02-28T12:28:02;3.05;;;2.60;;
54271;SDS011;40184;53.362;5.216;2023-02-28T12:30:30;2.38;;;2.28;;
54271;SDS011;40184;53.362;5.216;2023-02-28T12:35:34;3.65;;;3.20;;
54271;SDS011;40184;53.362;5.216;2023-02-28T12:38:14;4.38;;;3.30;;
54271;SDS011;40184;53.362;5.216;2023-02-28T12:43:19;3.20;;;2.90;;
54271;SDS011;40184;53.362;5.216;2023-02-28T12:48:25;3.88;;;2.88;;
54271;SDS011;40184;53.362;5.216;2023-02-28T12:53:25;2.88;;;2.67;;
54271;SDS011;40184;53.362;5.216;2023-02-28T12:56:12;2.60;;;2.40;;
54271;SDS011;40184;53.362;5.216;2023-02-28T12:58:57;2.85;;;2.63;;
54271;SDS011;40184;53.362;5.216;2023-02-28T13:06:51;3.13;;;2.85;;
54271;SDS011;40184;53.362;5.216;2023-02-28T13:09:20;4.10;;;3.30;;
54271;SDS011;40184;53.362;5.216;2023-02-28T13:11:47;3.05;;;2.53;;
54271;SDS011;40184;53.362;5.216;2023-02-28T13:15:00;3.47;;;3.17;;
54271;SDS011;40184;53.362;5.216;2023-02-28T13:19:31;3.15;;;2.85;;
54271;SDS011;40184;53.362;5.216;2023-02-28T13:21:59;3.15;;;2.90;;
54271;SDS011;40184;53.362;5.216;2023-02-28T13:27:20;2.90;;;2.70;;
54271;SDS011;40184;53.362;5.216;2023-02-28T13:29:52;3.42;;;3.15;;
54271;SDS011;40184;53.362;5.216;2023-02-28T13:39:51;5.47;;;3.73;;
54271;SDS011;40184;53.362;5.216;2023-02-28T13:45:34;7.43;;;3.83;;
54271;SDS011;40184;53.362;5.216;2023-02-28T13:52:56;4.03;;;3.33;;
54271;SDS011;40184;53.362;5.216;2023-02-28T13:55:41;5.60;;;3.15;;
54271;SDS011;40184;53.362;5.216;2023-02-28T13:58:27;3.58;;;2.72;;
54271;SDS011;40184;53.362;5.216;2023-02-28T14:01:22;4.85;;;2.97;;
54271;SDS011;40184;53.362;5.216;2023-02-28T14:07:18;5.82;;;2.75;;
54271;SDS011;40184;53.362;5.216;2023-02-28T14:09:55;7.10;;;3.28;;
54271;SDS011;40184;53.362;5.216;2023-02-28T14:17:59;3.65;;;2.85;;
54271;SDS011;40184;53.362;5.216;2023-02-28T14:20:29;4.68;;;3.40;;
54271;SDS011;40184;53.362;5.216;2023-02-28T14:23:12;5.30;;;3.28;;
54271;SDS011;40184;53.362;5.216;2023-02-28T14:25:55;3.70;;;3.00;;
54271;SDS011;40184;53.362;5.216;2023-02-28T14:31:09;5.20;;;3.63;;
54271;SDS011;40184;53.362;5.216;2023-02-28T14:33:47;5.28;;;3.30;;
54271;SDS011;40184;53.362;5.216;2023-02-28T14:36:18;4.80;;;3.17;;
54271;SDS011;40184;53.362;5.216;2023-02-28T14:38:55;4.15;;;3.50;;
54271;SDS011;40184;53.362;5.216;2023-02-28T14:41:35;3.83;;;3.05;;
54271;SDS011;40184;53.362;5.216;2023-02-28T14:44:14;6.95;;;3.67;;
54271;SDS011;40184;53.362;5.216;2023-02-28T14:46:52;4.30;;;3.33;;
54271;SDS011;40184;53.362;5.216;2023-02-28T14:49:26;3.35;;;3.05;;
54271;SDS011;40184;53.362;5.216;2023-02-28T14:52:05;5.68;;;3.45;;
54271;SDS011;40184;53.362;5.216;2023-02-28T14:54:37;3.65;;;3.03;;
54271;SDS011;40184;53.362;5.216;2023-02-28T14:57:04;5.18;;;3.47;;
54271;SDS011;40184;53.362;5.216;2023-02-28T15:05:10;5.55;;;3.38;;
54271;SDS011;40184;53.362;5.216;2023-02-28T15:08:00;8.73;;;5.60;;
54271;SDS011;40184;53.362;5.216;2023-02-28T15:10:54;5.90;;;4.40;;
54271;SDS011;40184;53.362;5.216;2023-02-28T15:13:20;7.85;;;4.50;;
54271;SDS011;40184;53.362;5.216;2023-02-28T15:15:57;8.93;;;4.95;;
54271;SDS011;40184;53.362;5.216;2023-02-28T15:18:29;5.55;;;3.85;;
54271;SDS011;40184;53.362;5.216;2023-02-28T15:20:57;3.35;;;2.90;;
54271;SDS011;40184;53.362;5.216;2023-02-28T15:23:27;9.18;;;4.28;;
54271;SDS011;40184;53.362;5.216;2023-02-28T15:25:54;6.15;;;3.13;;
54271;SDS011;40184;53.362;5.216;2023-02-28T15:28:20;7.55;;;4.15;;
54271;SDS011;40184;53.362;5.216;2023-02-28T15:30:52;5.15;;;3.47;;
54271;SDS011;40184;53.362;5.216;2023-02-28T15:33:20;4.27;;;3.10;;
54271;SDS011;40184;53.362;5.216;2023-02-28T15:35:51;2.93;;;2.67;;
54271;SDS011;40184;53.362;5.216;2023-02-28T15:38:28;4.18;;;2.92;;
54271;SDS011;40184;53.362;5.216;2023-02-28T15:40:55;3.97;;;3.58;;
54271;SDS011;40184;53.362;5.216;2023-02-28T15:43:27;5.68;;;4.05;;
54271;SDS011;40184;53.362;5.216;2023-02-28T15:46:06;5.07;;;3.70;;
54271;SDS011;40184;53.362;5.216;2023-02-28T15:48:36;4.20;;;3.03;;
54271;SDS011;40184;53.362;5.216;2023-02-28T15:51:12;4.93;;;3.67;;
54271;SDS011;40184;53.362;5.216;2023-02-28T15:53:48;5.47;;;3.22;;
54271;SDS011;40184;53.362;5.216;2023-02-28T15:56:33;6.22;;;4.13;;
54271;SDS011;40184;53.362;5.216;2023-02-28T15:59:06;5.38;;;2.88;;
54271;SDS011;40184;53.362;5.216;2023-02-28T16:01:38;5.32;;;4.00;;
54271;SDS011;40184;53.362;5.216;2023-02-28T16:04:25;6.47;;;4.13;;
54271;SDS011;40184;53.362;5.216;2023-02-28T16:09:23;7.47;;;6.20;;
54271;SDS011;40184;53.362;5.216;2023-02-28T16:11:49;8.98;;;6.07;;
54271;SDS011;40184;53.362;5.216;2023-02-28T16:14:22;10.25;;;6.93;;
54271;SDS011;40184;53.362;5.216;2023-02-28T16:16:50;10.93;;;6.30;;
54271;SDS011;40184;53.362;5.216;2023-02-28T16:19:18;11.23;;;6.53;;
54271;SDS011;40184;53.362;5.216;2023-02-28T16:21:45;7.25;;;5.15;;
54271;SDS011;40184;53.362;5.216;2023-02-28T16:24:11;8.05;;;6.32;;
54271;SDS011;40184;53.362;5.216;2023-02-28T16:26:38;13.95;;;7.47;;
54271;SDS011;40184;53.362;5.216;2023-02-28T16:29:06;21.65;;;16.67;;
54271;SDS011;40184;53.362;5.216;2023-02-28T16:31:34;11.35;;;7.20;;
54271;SDS011;40184;53.362;5.216;2023-02-28T16:34:02;20.98;;;9.52;;
54271;SDS011;40184;53.362;5.216;2023-02-28T16:36:28;8.30;;;6.30;;
54271;SDS011;40184;53.362;5.216;2023-02-28T16:38:54;9.07;;;7.40;;
54271;SDS011;40184;53.362;5.216;2023-02-28T16:41:22;13.25;;;7.13;;
54271;SDS011;40184;53.362;5.216;2023-02-28T16:43:51;11.85;;;7.40;;
54271;SDS011;40184;53.362;5.216;2023-02-28T16:46:19;67.63;;;41.80;;
54271;SDS011;40184;53.362;5.216;2023-02-28T16:48:46;24.98;;;21.23;;
54271;SDS011;40184;53.362;5.216;2023-02-28T16:51:16;55.22;;;50.10;;
54271;SDS011;40184;53.362;5.216;2023-02-28T16:53:43;30.90;;;27.55;;
54271;SDS011;40184;53.362;5.216;2023-02-28T16:56:19;11.68;;;9.73;;
54271;SDS011;40184;53.362;5.216;2023-02-28T16:58:49;19.08;;;13.55;;
54271;SDS011;40184;53.362;5.216;2023-02-28T17:01:16;17.67;;;10.15;;
54271;SDS011;40184;53.362;5.216;2023-02-28T17:03:46;12.18;;;8.40;;
54271;SDS011;40184;53.362;5.216;2023-02-28T17:06:23;16.08;;;11.27;;
54271;SDS011;40184;53.362;5.216;2023-02-28T17:08:52;14.85;;;9.70;;
54271;SDS011;40184;53.362;5.216;2023-02-28T17:11:19;16.08;;;12.00;;
54271;SDS011;40184;53.362;5.216;2023-02-28T17:13:45;14.35;;;9.27;;
54271;SDS011;40184;53.362;5.216;2023-02-28T17:18:50;20.50;;;11.23;;
54271;SDS011;40184;53.362;5.216;2023-02-28T17:21:16;21.65;;;11.80;;